createdAt,value
2018-07-19T00:02:43.982Z,1.67
2018-07-19T00:07:46.152Z,1.30
2018-07-19T00:12:48.317Z,1.50
2018-07-19T00:17:50.461Z,1.40
2018-07-19T00:22:52.602Z,1.53
2018-07-19T00:27:54.779Z,1.50
2018-07-19T00:32:56.970Z,1.40
2018-07-19T00:37:59.123Z,1.63
2018-07-19T00:43:01.311Z,1.40
2018-07-19T00:48:03.488Z,1.50
2018-07-19T00:53:05.654Z,1.40
2018-07-19T00:58:08.119Z,1.40
2018-07-19T01:03:10.310Z,1.50
2018-07-19T01:08:12.472Z,1.10
2018-07-19T01:13:14.667Z,1.87
2018-07-19T01:18:16.839Z,1.40
2018-07-19T01:23:18.958Z,1.40
2018-07-19T01:28:21.099Z,1.63
2018-07-19T01:33:23.263Z,1.47
2018-07-19T01:38:25.449Z,1.20
2018-07-19T01:43:27.648Z,1.70
2018-07-19T01:48:29.795Z,1.50
2018-07-19T01:53:31.962Z,1.33
2018-07-19T01:58:34.115Z,1.50
2018-07-19T02:03:36.261Z,2.00
2018-07-19T02:08:38.418Z,1.73
2018-07-19T02:13:40.616Z,1.70
2018-07-19T02:18:42.760Z,1.53
2018-07-19T02:23:44.906Z,1.73
2018-07-19T02:28:47.075Z,1.70
2018-07-19T02:33:49.634Z,1.90
2018-07-19T02:38:51.818Z,1.40
2018-07-19T02:43:54.004Z,1.90
2018-07-19T02:48:56.145Z,2.00
2018-07-19T02:53:58.334Z,2.07
2018-07-19T02:59:00.609Z,1.63
2018-07-19T03:04:02.923Z,2.70
2018-07-19T03:09:05.945Z,2.27
2018-07-19T03:14:08.162Z,1.73
2018-07-19T03:19:10.329Z,2.97
2018-07-19T03:24:12.513Z,3.00
2018-07-19T03:29:14.719Z,2.90
2018-07-19T03:34:16.895Z,2.67
2018-07-19T03:39:19.051Z,2.90
2018-07-19T03:44:21.309Z,2.80
2018-07-19T03:49:23.460Z,3.03
2018-07-19T03:54:25.631Z,2.40
2018-07-19T03:59:27.808Z,2.70
2018-07-19T04:04:30.001Z,2.07
2018-07-19T04:09:32.179Z,2.10
2018-07-19T04:14:34.601Z,2.33
2018-07-19T04:19:36.733Z,2.27
2018-07-19T04:24:38.934Z,2.40
2018-07-19T04:29:41.113Z,2.93
2018-07-19T04:34:43.303Z,2.53
2018-07-19T04:39:45.489Z,3.03
2018-07-19T04:44:47.681Z,2.40
2018-07-19T04:49:49.864Z,2.57
2018-07-19T04:54:51.997Z,3.30
2018-07-19T04:59:54.171Z,3.17
2018-07-19T05:04:56.358Z,3.50
2018-07-19T05:09:58.530Z,2.53
2018-07-19T05:15:00.753Z,4.90
2018-07-19T05:20:02.989Z,4.33
2018-07-19T05:25:05.246Z,3.67
2018-07-19T05:30:07.460Z,4.27
2018-07-19T05:35:10.427Z,4.53
2018-07-19T05:40:12.575Z,4.80
2018-07-19T05:45:14.760Z,4.57
2018-07-19T05:50:16.912Z,4.80
2018-07-19T05:55:19.092Z,3.43
2018-07-19T06:00:21.272Z,3.70
2018-07-19T06:05:23.539Z,4.43
2018-07-19T06:10:25.845Z,4.53
2018-07-19T06:15:28.055Z,4.00
2018-07-19T06:20:30.423Z,4.30
2018-07-19T06:25:32.602Z,4.70
2018-07-19T06:30:34.779Z,3.80
2018-07-19T06:35:36.989Z,3.30
2018-07-19T06:40:39.172Z,3.70
2018-07-19T06:45:41.743Z,3.17
2018-07-19T06:50:43.964Z,3.70
2018-07-19T06:55:46.350Z,3.50
2018-07-19T07:00:48.608Z,3.60
2018-07-19T07:05:50.909Z,2.67
2018-07-19T07:10:53.084Z,3.17
2018-07-19T07:15:55.429Z,2.77
2018-07-19T07:20:57.767Z,2.93
2018-07-19T07:25:59.960Z,3.60
2018-07-19T07:31:02.142Z,3.87
2018-07-19T07:36:04.576Z,3.00
2018-07-19T07:41:06.815Z,3.73
2018-07-19T07:46:09.007Z,2.80
2018-07-19T07:51:11.192Z,3.70
2018-07-19T07:56:13.366Z,3.83
2018-07-19T08:01:16.461Z,2.70
2018-07-19T08:06:18.664Z,3.47
2018-07-19T08:11:20.835Z,3.60
2018-07-19T08:16:23.089Z,3.27
2018-07-19T08:21:25.284Z,4.40
2018-07-19T08:26:27.495Z,2.63
2018-07-19T08:31:29.695Z,4.40
2018-07-19T08:36:31.955Z,4.03
2018-07-19T08:41:34.191Z,2.70
2018-07-19T08:46:36.435Z,3.20
2018-07-19T08:51:38.672Z,2.67
2018-07-19T08:56:40.929Z,3.23
2018-07-19T09:01:43.138Z,2.70
2018-07-19T09:06:45.350Z,3.07
2018-07-19T09:11:47.553Z,2.93
2018-07-19T09:16:49.820Z,2.93
2018-07-19T09:21:52.032Z,2.53
2018-07-19T09:26:54.225Z,2.50
2018-07-19T09:31:56.427Z,3.10
2018-07-19T09:36:58.701Z,2.73
2018-07-19T09:42:00.913Z,2.67
2018-07-19T09:47:03.188Z,2.80
2018-07-19T09:52:05.386Z,2.50
2018-07-19T09:57:07.568Z,3.33
2018-07-19T10:02:09.818Z,2.93
2018-07-19T10:07:11.974Z,3.00
2018-07-19T10:12:14.163Z,2.90
2018-07-19T10:17:16.632Z,2.87
2018-07-19T10:22:18.804Z,3.50
2018-07-19T10:27:20.963Z,2.90
2018-07-19T10:32:23.407Z,3.00
2018-07-19T10:37:25.466Z,3.30
2018-07-19T10:42:28.059Z,2.37
2018-07-19T10:47:30.232Z,2.20
2018-07-19T10:52:32.699Z,2.30
2018-07-19T10:57:34.912Z,2.17
2018-07-19T11:02:37.115Z,2.60
2018-07-19T11:07:39.336Z,2.33
2018-07-19T11:12:41.502Z,3.00
2018-07-19T11:17:43.731Z,2.23
2018-07-19T11:22:45.891Z,2.37
2018-07-19T11:27:48.073Z,3.00
2018-07-19T11:32:50.211Z,2.77
2018-07-19T11:37:52.407Z,2.50
2018-07-19T11:42:54.587Z,2.63
2018-07-19T11:47:56.832Z,2.27
2018-07-19T11:52:58.980Z,2.10
2018-07-19T11:58:01.134Z,2.60
2018-07-19T12:03:03.331Z,1.93
2018-07-19T12:08:05.503Z,2.23
2018-07-19T12:13:08.083Z,2.60
2018-07-19T12:18:10.290Z,2.80
2018-07-19T12:23:13.201Z,1.97
2018-07-19T12:28:15.347Z,2.07
2018-07-19T12:33:17.563Z,1.80
2018-07-19T12:38:20.173Z,2.17
2018-07-19T12:43:22.402Z,1.97
2018-07-19T12:48:24.553Z,1.93
2018-07-19T12:53:26.776Z,1.87
2018-07-19T12:58:28.944Z,1.90
2018-07-19T13:03:31.128Z,1.90
2018-07-19T13:08:33.326Z,2.33
2018-07-19T13:13:36.391Z,1.83
2018-07-19T13:18:38.642Z,1.90
2018-07-19T13:23:41.255Z,1.93
2018-07-19T13:28:43.478Z,1.70
2018-07-19T13:33:45.659Z,2.10
2018-07-19T13:38:47.870Z,2.37
2018-07-19T13:43:50.076Z,1.97
2018-07-19T13:48:52.232Z,2.20
2018-07-19T13:54:17.746Z,1.80
2018-07-19T13:59:19.966Z,2.10
2018-07-19T14:04:22.164Z,1.83
2018-07-19T14:09:24.365Z,1.33
2018-07-19T14:14:26.539Z,1.30
2018-07-19T14:19:28.742Z,1.53
2018-07-19T14:24:30.916Z,1.43
2018-07-19T14:29:33.089Z,1.53
2018-07-19T14:34:35.269Z,1.83
2018-07-19T14:39:37.462Z,1.17
2018-07-19T14:44:39.631Z,2.00
2018-07-19T14:49:41.846Z,1.63
2018-07-19T14:54:44.019Z,1.87
2018-07-19T14:59:46.218Z,1.90
2018-07-19T15:04:48.406Z,1.87
2018-07-19T15:09:50.624Z,1.87
2018-07-19T15:14:53.007Z,1.80
2018-07-19T15:19:55.278Z,1.93
2018-07-19T15:24:57.420Z,1.80
2018-07-19T15:29:59.602Z,1.80
2018-07-19T15:35:01.758Z,1.70
2018-07-19T15:40:05.048Z,1.70
2018-07-19T15:45:07.517Z,2.03
2018-07-19T15:50:09.715Z,1.80
2018-07-19T15:55:11.954Z,1.60
2018-07-19T16:00:14.159Z,1.80
2018-07-19T16:05:16.443Z,2.07
2018-07-19T16:10:18.708Z,1.70
2018-07-19T16:15:20.875Z,2.00
2018-07-19T16:20:23.084Z,1.50
2018-07-19T16:25:25.269Z,1.73
2018-07-19T16:30:27.443Z,1.30
2018-07-19T16:35:29.731Z,1.33
2018-07-19T16:40:31.888Z,1.43
2018-07-19T16:45:34.080Z,1.80
2018-07-19T16:50:36.291Z,1.57
2018-07-19T16:55:38.500Z,1.87
2018-07-19T17:00:40.670Z,1.90
2018-07-19T17:05:42.904Z,2.10
2018-07-19T17:10:45.096Z,1.30
2018-07-19T17:15:47.351Z,2.07
2018-07-19T17:20:49.597Z,1.90
2018-07-19T17:25:51.783Z,1.43
2018-07-19T17:30:53.974Z,1.37
2018-07-19T17:35:56.171Z,1.40
2018-07-19T17:40:58.410Z,1.70
2018-07-19T17:46:00.596Z,1.20
2018-07-19T17:51:02.761Z,0.90
2018-07-19T17:56:05.001Z,1.50
2018-07-19T18:01:07.327Z,1.10
2018-07-19T18:06:09.461Z,1.20
2018-07-19T18:11:11.665Z,1.20
2018-07-19T18:16:13.881Z,0.97
2018-07-19T18:21:16.096Z,1.17
2018-07-19T18:26:18.332Z,1.13
2018-07-19T18:31:20.576Z,1.00
2018-07-19T18:36:22.980Z,1.13
2018-07-19T18:41:25.181Z,0.87
2018-07-19T18:46:27.409Z,0.90
2018-07-19T18:51:29.689Z,1.03
2018-07-19T18:56:31.994Z,0.93
2018-07-19T19:01:34.209Z,1.17
2018-07-19T19:06:36.480Z,0.90
2018-07-19T19:11:38.657Z,0.90
2018-07-19T19:16:40.839Z,0.80
2018-07-19T19:21:43.315Z,1.10
2018-07-19T19:26:45.507Z,1.20
2018-07-19T19:31:47.695Z,0.70
2018-07-19T19:36:49.917Z,1.00
2018-07-19T19:41:52.118Z,0.80
2018-07-19T19:46:54.334Z,1.00
2018-07-19T19:51:56.549Z,0.90
2018-07-19T19:56:59.206Z,0.90
2018-07-19T20:02:01.456Z,1.00
2018-07-19T20:07:03.708Z,1.20
2018-07-19T20:12:05.911Z,0.90
2018-07-19T20:17:08.116Z,0.93
2018-07-19T20:22:10.429Z,1.03
2018-07-19T20:27:12.650Z,1.17
2018-07-19T20:32:14.986Z,0.90
2018-07-19T20:37:17.219Z,1.27
2018-07-19T20:42:19.358Z,0.97
2018-07-19T20:47:21.612Z,1.30
2018-07-19T20:52:23.848Z,1.00
2018-07-19T20:57:26.051Z,1.63
2018-07-19T21:02:28.232Z,1.07
2018-07-19T21:07:30.461Z,1.50
2018-07-19T21:12:32.658Z,1.40
2018-07-19T21:17:34.808Z,1.10
2018-07-19T21:22:36.984Z,1.07
2018-07-19T21:27:39.183Z,0.90
2018-07-19T21:32:41.359Z,1.50
2018-07-19T21:37:43.532Z,1.00
2018-07-19T21:42:45.670Z,1.37
2018-07-19T21:47:47.863Z,1.33
2018-07-19T21:52:51.405Z,1.13
2018-07-19T21:57:53.619Z,1.70
2018-07-19T22:02:56.244Z,1.03
2018-07-19T22:07:58.425Z,1.10
2018-07-19T22:13:00.604Z,1.17
2018-07-19T22:18:03.322Z,1.53
2018-07-19T22:23:05.572Z,1.33
2018-07-19T22:28:07.767Z,1.30
2018-07-19T22:33:10.059Z,1.20
2018-07-19T22:38:12.200Z,1.00
2018-07-19T22:43:14.355Z,1.00
2018-07-19T22:48:16.540Z,1.30
2018-07-19T22:53:18.721Z,0.97
2018-07-19T22:58:20.857Z,1.17
2018-07-19T23:03:23.047Z,1.27
2018-07-19T23:08:25.206Z,1.33
2018-07-19T23:13:27.371Z,0.90
2018-07-19T23:18:29.505Z,1.10
2018-07-19T23:23:31.709Z,1.40
2018-07-19T23:28:33.967Z,1.40
2018-07-19T23:33:36.163Z,1.30
2018-07-19T23:38:42.054Z,1.20
2018-07-19T23:43:47.097Z,1.43
2018-07-19T23:48:49.260Z,1.40
2018-07-19T23:53:51.606Z,1.07
2018-07-19T23:58:53.755Z,1.77
